Terminal Aerodrome Forecast
Issued by NWS Bismarck, ND

Home | Current Version | Previous Version | Text Only | Print | Product List | Glossary Off
Versions: 1 2 3 4 5 6 7 8 9 10 11 12 13 14 15 16 17 18 19 20 21

659
FTUS43 KBIS 292333
TAFBIS
TAF
KBIS 292333Z 3000/3024 22004KT P6SM FEW090
     FM301200 14004KT P6SM SCT200
     FM301800 13008KT P6SM -SHRA VCTS BKN090CB
      TEMPO 3021/3024 4SM TSRA BKN030CB=

USA.gov is the U.S. government's official web portal to all federal, state and local government web resources and services.